createdAt,value
2022-08-08T00:00:53.015Z,23.53
2022-08-08T00:03:20.153Z,23.35
2022-08-08T00:06:02.726Z,23.06
2022-08-08T00:08:48.862Z,23.18
2022-08-08T00:11:26.386Z,23.07
2022-08-08T00:14:58.968Z,22.99
2022-08-08T00:17:24.221Z,23.39
2022-08-08T00:20:01.465Z,22.50
2022-08-08T00:22:39.771Z,23.03
2022-08-08T00:25:14.777Z,21.57
2022-08-08T00:27:44.652Z,20.20
2022-08-08T00:30:15.787Z,20.88
2022-08-08T00:32:52.986Z,20.68
2022-08-08T00:35:37.586Z,21.19
2022-08-08T00:38:44.312Z,21.27
2022-08-08T00:42:09.020Z,20.91
2022-08-08T00:45:21.517Z,21.40
2022-08-08T00:48:43.514Z,22.38
2022-08-08T00:52:19.730Z,22.42
2022-08-08T00:55:53.380Z,21.84
2022-08-08T00:58:54.398Z,22.12
2022-08-08T01:01:38.134Z,22.26
2022-08-08T01:04:44.800Z,21.34
2022-08-08T01:08:12.746Z,21.40
2022-08-08T01:11:36.320Z,21.28
2022-08-08T01:15:12.277Z,21.50
2022-08-08T01:19:13.915Z,22.41
2022-08-08T01:22:40.648Z,22.30
2022-08-08T01:26:13.775Z,20.11
2022-08-08T01:29:35.572Z,21.78
2022-08-08T01:33:33.615Z,21.24
2022-08-08T01:37:05.972Z,22.25
2022-08-08T01:39:55.271Z,21.68
2022-08-08T01:42:37.745Z,22.02
2022-08-08T01:45:33.958Z,21.15
2022-08-08T01:48:31.475Z,20.21
2022-08-08T01:51:32.250Z,21.49
2022-08-08T01:55:26.746Z,21.36
2022-08-08T01:57:33.963Z,21.44
2022-08-08T02:00:27.955Z,20.97
2022-08-08T02:03:54.508Z,21.53
2022-08-08T02:06:43.523Z,21.62
2022-08-08T02:10:02.478Z,21.84
2022-08-08T02:12:24.427Z,21.56
2022-08-08T02:15:03.053Z,22.08
2022-08-08T02:17:43.360Z,21.95
2022-08-08T02:21:02.273Z,21.67
2022-08-08T02:23:23.210Z,20.75
2022-08-08T02:26:09.990Z,21.37
2022-08-08T02:28:54.908Z,21.79
2022-08-08T02:31:54.084Z,21.58
2022-08-08T02:35:11.900Z,22.17
2022-08-08T02:38:25.495Z,21.88
2022-08-08T02:41:59.157Z,22.05
2022-08-08T02:45:09.645Z,22.21
2022-08-08T02:48:28.051Z,21.93
2022-08-08T02:51:55.606Z,21.86
2022-08-08T02:54:59.296Z,21.76
2022-08-08T02:58:06.850Z,21.52
2022-08-08T03:01:23.052Z,21.29
2022-08-08T03:05:10.732Z,21.85
2022-08-08T03:08:34.046Z,22.07
2022-08-08T03:12:05.780Z,22.02
2022-08-08T03:15:58.741Z,22.10
2022-08-08T03:18:04.761Z,22.15
2022-08-08T03:20:47.062Z,22.13
2022-08-08T03:23:21.710Z,21.82
2022-08-08T03:25:54.985Z,21.97
2022-08-08T03:28:33.046Z,22.07
2022-08-08T03:31:24.736Z,21.44
2022-08-08T03:33:58.837Z,21.76
2022-08-08T03:36:31.131Z,21.34
2022-08-08T03:39:07.513Z,21.62
2022-08-08T03:42:26.668Z,21.25
2022-08-08T03:44:34.987Z,21.62
2022-08-08T03:47:17.594Z,21.54
2022-08-08T03:50:00.588Z,21.29
2022-08-08T03:52:33.875Z,21.69
2022-08-08T03:55:54.943Z,21.77
2022-08-08T03:58:35.298Z,21.87
2022-08-08T04:01:01.866Z,21.92
2022-08-08T04:03:59.917Z,21.82
2022-08-08T04:06:30.774Z,21.13
2022-08-08T04:09:10.777Z,21.44
2022-08-08T04:11:48.539Z,20.63
2022-08-08T04:14:34.894Z,20.46
2022-08-08T04:17:06.873Z,21.17
2022-08-08T04:19:44.030Z,20.94
2022-08-08T04:22:13.686Z,21.49
2022-08-08T04:24:50.114Z,21.27
2022-08-08T04:28:03.646Z,20.84
2022-08-08T04:30:18.243Z,21.39
2022-08-08T04:32:50.403Z,21.64
2022-08-08T04:35:20.357Z,21.77
2022-08-08T04:37:51.687Z,20.75
2022-08-08T04:40:24.277Z,21.38
2022-08-08T04:42:58.012Z,21.20
2022-08-08T04:45:29.894Z,21.37
2022-08-08T04:48:00.439Z,21.28
2022-08-08T04:50:34.198Z,21.16
2022-08-08T04:53:52.182Z,20.76
2022-08-08T04:55:56.322Z,19.86
2022-08-08T04:58:26.616Z,20.55
2022-08-08T05:00:55.315Z,21.45
2022-08-08T05:04:08.326Z,22.55
2022-08-08T05:06:25.806Z,22.17
2022-08-08T05:09:02.287Z,22.82
2022-08-08T05:11:38.851Z,23.92
2022-08-08T05:14:12.246Z,23.13
2022-08-08T05:16:51.795Z,24.63
2022-08-08T05:20:09.243Z,25.24
2022-08-08T05:22:13.051Z,25.96
2022-08-08T05:24:48.628Z,24.90
2022-08-08T05:27:17.738Z,24.84
2022-08-08T05:29:51.951Z,24.03
2022-08-08T05:32:27.147Z,23.19
2022-08-08T05:35:04.420Z,21.98
2022-08-08T05:37:53.158Z,22.94
2022-08-08T05:40:28.800Z,23.58
2022-08-08T05:43:38.701Z,23.50
2022-08-08T05:46:03.418Z,24.39
2022-08-08T05:48:34.739Z,23.53
2022-08-08T05:51:14.708Z,22.79
2022-08-08T05:54:26.013Z,24.10
2022-08-08T05:56:42.179Z,21.41
2022-08-08T05:59:59.465Z,22.16
2022-08-08T06:02:43.870Z,22.72
2022-08-08T06:05:34.627Z,23.96
2022-08-08T06:08:10.506Z,22.41
2022-08-08T06:10:56.890Z,22.89
2022-08-08T06:13:35.881Z,22.10
2022-08-08T06:16:13.313Z,22.92
2022-08-08T06:18:43.722Z,22.04
2022-08-08T06:21:32.520Z,20.97
2022-08-08T06:24:02.142Z,21.77
2022-08-08T06:26:44.327Z,22.88
2022-08-08T06:29:56.415Z,22.56
2022-08-08T06:32:18.584Z,21.88
2022-08-08T06:35:12.287Z,22.33
2022-08-08T06:37:50.794Z,21.51
2022-08-08T06:40:21.560Z,21.40
2022-08-08T06:42:57.582Z,22.03
2022-08-08T06:45:26.110Z,21.89
2022-08-08T06:48:01.189Z,22.59
2022-08-08T06:50:38.549Z,23.75
2022-08-08T06:53:17.183Z,21.53
2022-08-08T06:56:00.843Z,24.40
2022-08-08T06:58:33.228Z,23.67
2022-08-08T07:01:24.255Z,23.56
2022-08-08T07:04:40.301Z,23.66
2022-08-08T07:06:51.538Z,24.38
2022-08-08T07:09:22.041Z,26.32
2022-08-08T07:11:59.453Z,25.03
2022-08-08T07:14:36.361Z,24.71
2022-08-08T07:17:09.535Z,24.81
2022-08-08T07:19:53.650Z,24.27
2022-08-08T07:22:39.948Z,25.13
2022-08-08T07:25:10.978Z,24.79
2022-08-08T07:28:01.967Z,25.28
2022-08-08T07:30:31.893Z,24.26
2022-08-08T07:33:02.135Z,24.95
2022-08-08T07:35:31.244Z,24.88
2022-08-08T07:38:10.166Z,24.86
2022-08-08T07:40:40.113Z,24.85
2022-08-08T07:43:09.806Z,25.10
2022-08-08T07:46:04.838Z,25.32
2022-08-08T07:48:29.653Z,24.59
2022-08-08T07:51:01.213Z,24.44
2022-08-08T07:54:01.358Z,23.94
2022-08-08T07:56:35.677Z,26.39
2022-08-08T07:59:11.115Z,25.64
2022-08-08T08:02:33.339Z,26.27
2022-08-08T08:04:49.356Z,25.77
2022-08-08T08:07:32.375Z,25.37
2022-08-08T08:10:13.076Z,26.34
2022-08-08T08:12:46.264Z,26.20
2022-08-08T08:15:21.733Z,26.00
2022-08-08T08:17:55.913Z,26.14
2022-08-08T08:20:29.721Z,25.86
2022-08-08T08:22:58.808Z,25.23
2022-08-08T08:25:40.808Z,25.70
2022-08-08T08:28:21.331Z,25.68
2022-08-08T08:30:53.552Z,25.74
2022-08-08T08:33:22.402Z,26.27
2022-08-08T08:36:19.100Z,26.95
2022-08-08T08:38:50.051Z,26.69
2022-08-08T08:41:22.162Z,26.83
2022-08-08T08:43:52.822Z,26.74
2022-08-08T08:46:45.409Z,27.11
2022-08-08T08:49:16.677Z,26.42
2022-08-08T08:51:51.504Z,26.82
2022-08-08T08:54:25.618Z,26.44
2022-08-08T08:56:57.135Z,26.50
2022-08-08T08:59:59.612Z,26.79
2022-08-08T09:02:24.160Z,26.35
2022-08-08T09:04:58.931Z,26.95
2022-08-08T09:07:39.515Z,27.15
2022-08-08T09:10:18.870Z,26.67
2022-08-08T09:12:52.177Z,26.16
2022-08-08T09:15:37.169Z,26.07
2022-08-08T09:18:09.700Z,26.58
2022-08-08T09:21:59.244Z,26.76
2022-08-08T09:23:33.472Z,27.62
2022-08-08T09:26:21.399Z,27.61
2022-08-08T09:28:51.724Z,28.09
2022-08-08T09:31:42.303Z,26.94
2022-08-08T09:34:32.562Z,27.83
2022-08-08T09:37:58.357Z,28.07
2022-08-08T09:40:03.857Z,27.58
2022-08-08T09:42:44.201Z,27.54
2022-08-08T09:45:55.246Z,27.24
2022-08-08T09:48:21.567Z,26.89
2022-08-08T09:50:56.158Z,27.18
2022-08-08T09:53:59.029Z,27.39
2022-08-08T09:56:25.253Z,27.80
2022-08-08T09:59:11.157Z,27.49
2022-08-08T10:01:59.000Z,28.05
2022-08-08T10:04:42.235Z,27.95
2022-08-08T10:07:17.646Z,27.90
2022-08-08T10:09:59.557Z,28.41
2022-08-08T10:12:53.238Z,28.98
2022-08-08T10:15:25.240Z,27.77
2022-08-08T10:18:10.152Z,28.07
2022-08-08T10:20:58.268Z,27.92
2022-08-08T10:23:47.127Z,28.52
2022-08-08T10:26:29.755Z,28.03
2022-08-08T10:29:07.055Z,28.40
2022-08-08T10:31:55.235Z,27.34
2022-08-08T10:34:27.456Z,28.53
2022-08-08T10:36:59.682Z,28.57
2022-08-08T10:39:31.737Z,28.85
2022-08-08T10:42:16.326Z,29.29
2022-08-08T10:44:46.037Z,28.43
2022-08-08T10:47:20.988Z,28.27
2022-08-08T10:50:02.334Z,28.34
2022-08-08T10:52:35.091Z,27.61
2022-08-08T10:55:06.654Z,28.24
2022-08-08T10:57:50.013Z,27.79
2022-08-08T11:00:27.265Z,27.73
2022-08-08T11:02:56.595Z,27.89
2022-08-08T11:05:39.004Z,28.48
2022-08-08T11:08:30.954Z,28.43
2022-08-08T11:11:08.243Z,28.52
2022-08-08T11:14:00.047Z,29.14
2022-08-08T11:16:34.544Z,28.82
2022-08-08T11:19:05.582Z,28.46
2022-08-08T11:21:55.484Z,28.75
2022-08-08T11:24:29.106Z,27.95
2022-08-08T11:27:10.612Z,28.02
2022-08-08T11:29:58.328Z,27.91
2022-08-08T11:32:41.762Z,28.29
2022-08-08T11:35:27.844Z,27.34
2022-08-08T11:38:35.662Z,27.18
2022-08-08T11:40:53.156Z,27.58
2022-08-08T11:43:24.920Z,27.26
2022-08-08T11:46:10.015Z,26.90
2022-08-08T11:48:47.209Z,27.44
2022-08-08T11:51:30.326Z,27.10
2022-08-08T11:54:09.710Z,27.40
2022-08-08T11:57:14.490Z,27.27
2022-08-08T12:00:00.614Z,26.84
2022-08-08T12:02:34.174Z,27.36
2022-08-08T12:05:08.253Z,27.31
2022-08-08T12:07:51.559Z,27.39
2022-08-08T12:10:24.664Z,27.31
2022-08-08T12:13:05.111Z,27.47
2022-08-08T12:15:42.246Z,27.28
2022-08-08T12:18:17.979Z,27.24
2022-08-08T12:20:50.094Z,27.71
2022-08-08T12:23:43.130Z,27.50
2022-08-08T12:26:28.105Z,27.26
2022-08-08T12:29:40.991Z,27.36
2022-08-08T12:32:17.034Z,27.70
2022-08-08T12:35:13.226Z,27.60
2022-08-08T12:37:48.182Z,27.76
2022-08-08T12:40:54.800Z,27.57
2022-08-08T12:43:43.769Z,27.49
2022-08-08T12:46:24.843Z,27.91
2022-08-08T12:51:58.616Z,27.48
2022-08-08T12:54:35.703Z,27.74
2022-08-08T12:57:17.240Z,27.67
2022-08-08T13:00:04.748Z,27.64
2022-08-08T13:02:37.854Z,27.68
2022-08-08T13:05:26.520Z,27.59
2022-08-08T13:08:17.218Z,28.00
2022-08-08T13:10:55.407Z,27.34
2022-08-08T13:13:35.080Z,27.40
2022-08-08T13:16:21.417Z,27.62
2022-08-08T13:18:57.254Z,27.67
2022-08-08T13:21:36.365Z,28.17
2022-08-08T13:24:18.608Z,28.23
2022-08-08T13:27:02.138Z,28.33
2022-08-08T13:29:40.857Z,27.88
2022-08-08T13:32:11.040Z,27.07
2022-08-08T13:34:41.413Z,27.58
2022-08-08T13:37:19.886Z,27.66
2022-08-08T13:40:03.382Z,27.71
2022-08-08T13:42:32.514Z,27.89
2022-08-08T13:45:04.529Z,27.64
2022-08-08T13:47:34.738Z,27.79
2022-08-08T13:50:38.418Z,28.29
2022-08-08T13:52:55.517Z,27.95
2022-08-08T13:55:29.288Z,27.78
2022-08-08T13:58:08.271Z,28.15
2022-08-08T14:00:46.011Z,27.90
2022-08-08T14:03:53.955Z,27.31
2022-08-08T14:06:32.484Z,27.67
2022-08-08T14:09:25.423Z,27.28
2022-08-08T14:11:51.408Z,27.60
2022-08-08T14:14:21.187Z,28.03
2022-08-08T14:16:57.234Z,28.06
2022-08-08T14:19:57.816Z,28.24
2022-08-08T14:22:28.866Z,27.73
2022-08-08T14:25:00.856Z,27.46
2022-08-08T14:27:33.412Z,27.60
2022-08-08T14:30:17.885Z,28.02
2022-08-08T14:32:53.104Z,27.80
2022-08-08T14:35:35.058Z,27.39
2022-08-08T14:38:33.595Z,27.53
2022-08-08T14:40:59.028Z,27.87
2022-08-08T14:44:01.787Z,27.84
2022-08-08T14:46:30.851Z,27.54
2022-08-08T14:49:09.461Z,27.53
2022-08-08T14:51:53.541Z,26.91
2022-08-08T14:54:29.254Z,27.37
2022-08-08T14:56:58.512Z,27.45
2022-08-08T14:59:51.047Z,27.17
2022-08-08T15:02:25.754Z,27.37
2022-08-08T15:05:10.596Z,27.47
2022-08-08T15:07:42.509Z,27.14
2022-08-08T15:10:22.898Z,26.98
2022-08-08T15:12:57.303Z,27.58
2022-08-08T15:16:01.364Z,27.60
2022-08-08T15:18:13.961Z,27.25
2022-08-08T15:20:48.791Z,27.64
2022-08-08T15:23:18.467Z,27.15
2022-08-08T15:25:46.746Z,27.20
2022-08-08T15:28:33.700Z,27.63
2022-08-08T15:31:02.999Z,27.59
2022-08-08T15:33:35.475Z,27.54
2022-08-08T15:36:07.923Z,27.44
2022-08-08T15:38:40.565Z,27.48
2022-08-08T15:41:17.969Z,27.20
2022-08-08T15:44:01.077Z,26.92
2022-08-08T15:46:34.868Z,27.46
2022-08-08T15:49:05.019Z,26.85
2022-08-08T15:51:34.272Z,27.11
2022-08-08T15:54:05.152Z,27.49
2022-08-08T15:56:33.775Z,27.11
2022-08-08T15:59:02.357Z,27.21
2022-08-08T16:01:40.429Z,26.92
2022-08-08T16:04:19.046Z,26.69
2022-08-08T16:06:51.003Z,27.71
2022-08-08T16:13:04.327Z,26.30
2022-08-08T16:13:11.561Z,27.15
2022-08-08T16:14:57.449Z,26.28
2022-08-08T16:17:57.597Z,26.47
2022-08-08T16:20:14.967Z,26.20
2022-08-08T16:22:49.470Z,26.03
2022-08-08T16:25:22.081Z,26.29
2022-08-08T16:27:57.829Z,26.22
2022-08-08T16:30:36.415Z,26.62
2022-08-08T16:33:05.759Z,26.52
2022-08-08T16:35:34.517Z,26.92
2022-08-08T16:38:02.772Z,26.88
2022-08-08T16:40:33.251Z,26.79
2022-08-08T16:43:01.807Z,26.30
2022-08-08T16:46:37.653Z,26.71
2022-08-08T16:48:19.219Z,26.36
2022-08-08T16:50:47.564Z,25.98
2022-08-08T16:55:01.842Z,26.37
2022-08-08T16:56:14.170Z,27.03
2022-08-08T16:58:43.453Z,26.48
2022-08-08T17:01:15.641Z,26.33
2022-08-08T17:04:00.638Z,26.60
2022-08-08T17:06:39.630Z,26.41
2022-08-08T17:09:15.557Z,26.53
2022-08-08T17:11:48.485Z,26.48
2022-08-08T17:14:33.027Z,26.41
2022-08-08T17:17:04.507Z,26.59
2022-08-08T17:19:41.125Z,26.46
2022-08-08T17:22:10.713Z,25.89
2022-08-08T17:24:40.898Z,25.98
2022-08-08T17:27:10.710Z,26.34
2022-08-08T17:29:43.930Z,26.69
2022-08-08T17:32:28.816Z,25.76
2022-08-08T17:35:54.191Z,26.20
2022-08-08T17:37:53.207Z,25.56
2022-08-08T17:40:22.227Z,25.96
2022-08-08T17:42:53.098Z,24.96
2022-08-08T17:45:23.195Z,25.49
2022-08-08T17:47:54.263Z,25.89
2022-08-08T17:50:23.622Z,25.81
2022-08-08T17:52:52.726Z,25.48
2022-08-08T17:56:07.153Z,25.80
2022-08-08T17:58:12.349Z,25.66
2022-08-08T18:00:41.680Z,25.74
2022-08-08T18:03:13.348Z,25.37
2022-08-08T18:05:43.989Z,25.45
2022-08-08T18:08:24.549Z,25.40
2022-08-08T18:11:07.045Z,25.33
2022-08-08T18:13:41.852Z,24.91
2022-08-08T18:16:12.708Z,24.59
2022-08-08T18:18:52.602Z,25.22
2022-08-08T18:21:34.612Z,25.61
2022-08-08T18:24:04.884Z,25.81
2022-08-08T18:26:34.440Z,25.50
2022-08-08T18:29:05.902Z,25.59
2022-08-08T18:31:34.347Z,25.96
2022-08-08T18:34:11.963Z,25.90
2022-08-08T18:36:55.690Z,26.08
2022-08-08T18:39:27.536Z,26.43
2022-08-08T18:42:01.129Z,26.00
2022-08-08T18:44:36.054Z,25.93
2022-08-08T18:47:05.260Z,24.79
2022-08-08T18:49:49.136Z,24.91
2022-08-08T18:52:23.404Z,25.34
2022-08-08T18:55:00.436Z,25.28
2022-08-08T18:57:41.297Z,25.58
2022-08-08T19:00:20.944Z,25.10
2022-08-08T19:02:55.342Z,25.63
2022-08-08T19:05:34.285Z,25.91
2022-08-08T19:08:25.366Z,25.21
2022-08-08T19:10:59.026Z,24.49
2022-08-08T19:13:53.279Z,25.17
2022-08-08T19:16:19.946Z,24.80
2022-08-08T19:19:00.129Z,24.93
2022-08-08T19:21:33.848Z,25.59
2022-08-08T19:24:49.036Z,25.34
2022-08-08T19:27:07.699Z,25.35
2022-08-08T19:29:40.783Z,25.58
2022-08-08T19:32:21.919Z,25.53
2022-08-08T19:34:51.578Z,24.97
2022-08-08T19:37:42.725Z,25.27
2022-08-08T19:40:14.617Z,24.99
2022-08-08T19:42:45.478Z,24.64
2022-08-08T19:45:14.411Z,24.58
2022-08-08T19:48:04.485Z,25.29
2022-08-08T19:50:34.857Z,24.97
2022-08-08T19:53:03.216Z,25.03
2022-08-08T19:55:51.617Z,25.03
2022-08-08T19:58:20.167Z,24.81
2022-08-08T20:00:53.110Z,24.92
2022-08-08T20:04:00.393Z,24.37
2022-08-08T20:06:15.601Z,24.67
2022-08-08T20:08:48.125Z,24.43
2022-08-08T20:11:16.993Z,24.51
2022-08-08T20:14:31.329Z,23.95
2022-08-08T20:16:38.943Z,24.21
2022-08-08T20:19:10.950Z,24.37
2022-08-08T20:21:39.713Z,24.89
2022-08-08T20:24:09.321Z,24.80
2022-08-08T20:26:41.636Z,24.56
2022-08-08T20:29:16.119Z,24.20
2022-08-08T20:32:02.547Z,24.20
2022-08-08T20:34:35.149Z,23.51
2022-08-08T20:37:07.231Z,24.20
2022-08-08T20:39:41.782Z,24.43
2022-08-08T20:42:23.699Z,23.37
2022-08-08T20:44:58.911Z,22.92
2022-08-08T20:47:28.754Z,23.11
2022-08-08T20:50:09.835Z,23.16
2022-08-08T20:52:39.328Z,23.04
2022-08-08T20:55:22.725Z,22.92
2022-08-08T20:57:54.447Z,22.43
2022-08-08T21:00:28.068Z,23.20
2022-08-08T21:02:56.459Z,22.28
2022-08-08T21:05:31.885Z,22.08
2022-08-08T21:08:34.410Z,22.50
2022-08-08T21:10:50.096Z,22.35
2022-08-08T21:13:18.375Z,22.15
2022-08-08T21:16:05.937Z,22.44
2022-08-08T21:18:35.155Z,22.22
2022-08-08T21:21:19.559Z,22.44
2022-08-08T21:24:03.168Z,22.68
2022-08-08T21:26:34.394Z,22.65
2022-08-08T21:29:02.812Z,23.29
2022-08-08T21:31:58.347Z,22.32
2022-08-08T21:34:19.806Z,22.17
2022-08-08T21:36:51.725Z,22.22
2022-08-08T21:39:22.964Z,22.52
2022-08-08T21:42:10.199Z,22.32
2022-08-08T21:44:39.114Z,21.72
2022-08-08T21:48:06.448Z,22.66
2022-08-08T21:50:15.676Z,22.20
2022-08-08T21:54:36.543Z,22.64
2022-08-08T21:56:24.465Z,22.33
2022-08-08T21:58:21.852Z,23.18
2022-08-08T22:01:04.061Z,22.95
2022-08-08T22:03:32.875Z,23.15
2022-08-08T22:06:02.554Z,22.96
2022-08-08T22:08:41.803Z,22.77
2022-08-08T22:11:45.116Z,23.28
2022-08-08T22:13:58.875Z,22.86
2022-08-08T22:16:28.454Z,22.65
2022-08-08T22:18:56.875Z,22.40
2022-08-08T22:21:25.260Z,22.72
2022-08-08T22:24:04.795Z,22.65
2022-08-08T22:26:33.165Z,23.07
2022-08-08T22:29:59.353Z,23.06
2022-08-08T22:32:09.755Z,23.13
2022-08-08T22:34:39.728Z,22.73
2022-08-08T22:37:15.132Z,22.92
2022-08-08T22:40:00.217Z,22.88
2022-08-08T22:42:32.139Z,22.65
2022-08-08T22:45:03.707Z,22.98
2022-08-08T22:47:34.172Z,23.10
2022-08-08T22:50:25.101Z,22.53
2022-08-08T22:53:01.556Z,22.81
2022-08-08T22:55:58.517Z,22.96
2022-08-08T22:58:32.839Z,22.88
2022-08-08T23:01:02.197Z,22.73
2022-08-08T23:03:54.444Z,22.42
2022-08-08T23:06:24.482Z,22.80
2022-08-08T23:08:55.020Z,22.86
2022-08-08T23:11:31.420Z,22.34
2022-08-08T23:14:16.805Z,22.45
2022-08-08T23:16:48.202Z,22.38
2022-08-08T23:19:26.860Z,22.31
2022-08-08T23:21:55.160Z,22.18
2022-08-08T23:24:23.558Z,22.27
2022-08-08T23:26:56.132Z,22.53
2022-08-08T23:29:25.541Z,21.91
2022-08-08T23:31:54.069Z,22.18
2022-08-08T23:34:23.526Z,21.82
2022-08-08T23:36:57.905Z,22.00
2022-08-08T23:39:32.343Z,21.44
2022-08-08T23:42:11.355Z,21.76
2022-08-08T23:44:39.658Z,21.93
2022-08-08T23:49:07.771Z,21.24
2022-08-08T23:50:03.069Z,21.63
2022-08-08T23:52:34.298Z,21.66
2022-08-08T23:55:14.479Z,21.18
2022-08-08T23:57:53.024Z,21.54
